Time;durP1;ratioP1;P1;durP2;ratioP2;P2;SDS_P1;SDS_P2;PMS_P1;PMS_P2;Temp;Humidity;BMP_temperature;BMP_pressure;BME280_temperature;BME280_humidity;BME280_pressure;Samples;Min_cycle;Max_cycle;Signal;HPM_P1;HPM_P2
2023/09/12 00:00:49;;;;;;;1.60;1.50;;;18.70;99.90;;;;;;5038544;28;20048;-73
2023/09/12 00:03:20;;;;;;;1.98;1.10;;;18.70;99.90;;;;;;5058545;28;20474;-73
2023/09/12 00:05:58;;;;;;;0.82;0.57;;;18.70;99.90;;;;;;5074355;28;20045;-73
2023/09/12 00:08:24;;;;;;;0.98;0.98;;;18.70;99.90;;;;;;5038751;28;20866;-73
2023/09/12 00:11:02;;;;;;;0.60;0.40;;;18.70;99.90;;;;;;5041376;28;20068;-71
2023/09/12 00:13:28;;;;;;;3.58;1.52;;;18.70;99.90;;;;;;5038167;28;20049;-72
2023/09/12 00:15:53;;;;;;;1.92;0.93;;;18.70;99.90;;;;;;5070044;28;20052;-72
2023/09/12 00:18:19;;;;;;;0.95;0.90;;;18.60;99.90;;;;;;5044677;28;20044;-72
2023/09/12 00:20:45;;;;;;;2.85;1.08;;;18.60;99.90;;;;;;5043656;28;20036;-72
2023/09/12 00:23:10;;;;;;;1.15;1.02;;;18.60;99.90;;;;;;5047071;28;20048;-72
2023/09/12 00:25:36;;;;;;;0.80;0.45;;;18.60;99.90;;;;;;5046462;28;20074;-72
2023/09/12 00:28:01;;;;;;;0.73;0.73;;;18.50;99.90;;;;;;5039693;28;20386;-72
2023/09/12 00:30:27;;;;;;;1.25;1.25;;;18.50;99.90;;;;;;5046130;28;20491;-72
2023/09/12 00:32:52;;;;;;;3.72;2.15;;;18.50;99.90;;;;;;5040429;28;20698;-72
2023/09/12 00:35:18;;;;;;;2.40;0.77;;;18.50;99.90;;;;;;5035733;28;21028;-72
2023/09/12 00:37:43;;;;;;;1.20;1.20;;;18.50;99.90;;;;;;5041174;28;20040;-73
2023/09/12 00:40:09;;;;;;;2.13;1.45;;;18.50;99.90;;;;;;5042646;28;20043;-72
2023/09/12 00:42:35;;;;;;;3.45;1.20;;;18.50;99.90;;;;;;5042723;28;20060;-72
2023/09/12 00:45:00;;;;;;;2.03;0.88;;;18.40;99.90;;;;;;5048551;28;20083;-72
2023/09/12 00:47:28;;;;;;;0.88;0.47;;;18.40;99.90;;;;;;5031758;28;20056;-72
2023/09/12 00:49:55;;;;;;;2.20;1.38;;;18.40;99.90;;;;;;5043630;28;20136;-71
2023/09/12 00:52:22;;;;;;;0.88;0.52;;;18.40;99.90;;;;;;5073039;28;20041;-72
2023/09/12 00:54:48;;;;;;;1.55;0.80;;;18.30;99.90;;;;;;5048604;28;20063;-71
2023/09/12 00:57:14;;;;;;;0.50;0.50;;;18.30;99.90;;;;;;5040221;28;20041;-71
2023/09/12 00:59:39;;;;;;;0.52;0.52;;;18.30;99.90;;;;;;5042239;28;20045;-71
2023/09/12 01:02:06;;;;;;;3.45;0.95;;;18.30;99.90;;;;;;5039139;28;20086;-72
2023/09/12 01:04:32;;;;;;;0.90;0.85;;;18.30;99.90;;;;;;5046279;28;20149;-72
2023/09/12 01:06:58;;;;;;;1.70;1.13;;;18.20;99.90;;;;;;5040559;28;20055;-72
2023/09/12 01:09:24;;;;;;;1.10;0.85;;;18.20;99.90;;;;;;5041734;28;20510;-72
2023/09/12 01:11:50;;;;;;;1.40;0.85;;;18.20;99.90;;;;;;5042132;28;20042;-72
2023/09/12 01:14:15;;;;;;;1.45;1.35;;;18.20;99.90;;;;;;5045049;28;20040;-72
2023/09/12 01:16:41;;;;;;;1.25;1.15;;;18.20;99.90;;;;;;5044835;28;20040;-72
2023/09/12 01:19:10;;;;;;;0.40;0.40;;;18.20;99.90;;;;;;5041551;28;20090;-72
2023/09/12 01:22:13;;;;;;;1.75;0.93;;;18.10;99.90;;;;;;5043109;28;20040;-72
2023/09/12 01:25:07;;;;;;;0.82;0.82;;;18.00;99.90;;;;;;5040260;28;20557;-72
2023/09/12 01:27:34;;;;;;;0.95;0.50;;;18.00;99.90;;;;;;5033093;28;20044;-72
2023/09/12 01:30:05;;;;;;;1.00;0.75;;;18.00;99.90;;;;;;5075292;28;20047;-72
2023/09/12 01:32:35;;;;;;;0.73;0.50;;;18.00;99.90;;;;;;5037774;28;20646;-72
2023/09/12 01:35:04;;;;;;;2.92;1.20;;;17.90;99.90;;;;;;5048518;28;20639;-72
2023/09/12 01:37:31;;;;;;;2.97;0.90;;;17.90;99.90;;;;;;5043692;28;21070;-72
2023/09/12 01:39:57;;;;;;;2.20;0.65;;;17.90;99.90;;;;;;5045395;28;20086;-72
2023/09/12 01:42:23;;;;;;;0.63;0.63;;;17.90;99.90;;;;;;5040349;28;20045;-71
2023/09/12 01:44:57;;;;;;;0.85;0.75;;;17.90;99.90;;;;;;5041792;28;20516;-72
2023/09/12 01:47:24;;;;;;;0.30;0.30;;;17.80;99.90;;;;;;5033553;28;20052;-71
2023/09/12 01:49:53;;;;;;;0.13;0.13;;;17.90;99.90;;;;;;5023500;28;20077;-71
2023/09/12 01:52:20;;;;;;;1.67;1.58;;;17.90;99.90;;;;;;5037883;28;20040;-71
2023/09/12 01:54:47;;;;;;;1.42;1.33;;;17.90;99.90;;;;;;5049033;28;20076;-71
2023/09/12 01:57:13;;;;;;;0.88;0.55;;;17.80;99.90;;;;;;5041445;28;20033;-71
2023/09/12 01:59:39;;;;;;;0.60;0.57;;;17.80;99.90;;;;;;5042693;28;20187;-71
2023/09/12 02:02:05;;;;;;;0.70;0.70;;;17.80;99.90;;;;;;5039129;28;20455;-72
2023/09/12 02:04:30;;;;;;;1.30;0.85;;;17.80;99.90;;;;;;5043124;28;20138;-71
2023/09/12 02:06:58;;;;;;;1.15;0.57;;;17.70;99.90;;;;;;5040230;28;20511;-71
2023/09/12 02:09:23;;;;;;;1.15;1.05;;;17.70;99.90;;;;;;5038545;28;20070;-71
2023/09/12 02:11:50;;;;;;;1.08;0.43;;;17.70;99.90;;;;;;5038652;28;20129;-71
2023/09/12 02:14:17;;;;;;;2.33;1.13;;;17.70;99.90;;;;;;5039875;28;20364;-71
2023/09/12 02:16:43;;;;;;;0.10;0.10;;;17.70;99.90;;;;;;5063610;28;20039;-70
2023/09/12 02:19:09;;;;;;;0.22;0.20;;;17.60;99.90;;;;;;5041689;28;20048;-71
2023/09/12 02:21:34;;;;;;;0.30;0.30;;;17.50;99.90;;;;;;5040930;28;20368;-71
2023/09/12 02:24:00;;;;;;;0.82;0.82;;;17.30;99.90;;;;;;5073865;28;20043;-70
2023/09/12 02:26:25;;;;;;;0.90;0.55;;;17.30;99.90;;;;;;5040975;28;20040;-71
2023/09/12 02:28:51;;;;;;;0.10;0.10;;;17.20;99.90;;;;;;5042638;28;20082;-71
2023/09/12 02:31:17;;;;;;;0.20;0.10;;;17.10;99.90;;;;;;5044430;28;20082;-71
2023/09/12 02:33:42;;;;;;;1.67;0.32;;;17.10;99.90;;;;;;5042095;28;20136;-71
2023/09/12 02:36:08;;;;;;;1.27;1.15;;;17.20;99.90;;;;;;5041622;28;20045;-71
2023/09/12 02:38:34;;;;;;;0.35;0.35;;;17.30;99.90;;;;;;5040167;28;20391;-71
2023/09/12 02:40:59;;;;;;;1.30;0.28;;;17.30;99.90;;;;;;5042700;28;20555;-70
2023/09/12 02:43:25;;;;;;;1.00;0.93;;;17.30;99.90;;;;;;5036837;28;20043;-70
2023/09/12 02:45:50;;;;;;;1.13;0.57;;;17.30;99.90;;;;;;5040081;28;20187;-71
2023/09/12 02:48:16;;;;;;;0.68;0.68;;;17.30;99.90;;;;;;5039523;28;20045;-71
2023/09/12 02:50:41;;;;;;;2.35;2.15;;;17.40;99.90;;;;;;5038408;28;20510;-70
2023/09/12 02:53:07;;;;;;;1.92;1.02;;;17.40;99.90;;;;;;5041850;28;20534;-71
2023/09/12 02:55:33;;;;;;;1.23;0.75;;;17.40;99.90;;;;;;5044005;28;20503;-71
2023/09/12 02:57:59;;;;;;;2.83;0.98;;;17.50;99.90;;;;;;5041613;28;20055;-71
2023/09/12 03:00:24;;;;;;;1.00;1.00;;;17.50;99.90;;;;;;5044707;28;20045;-70
2023/09/12 03:02:50;;;;;;;1.02;1.02;;;17.50;99.90;;;;;;5042119;28;20044;-70
2023/09/12 03:05:16;;;;;;;1.08;0.90;;;17.50;99.90;;;;;;5045931;28;20116;-70
2023/09/12 03:07:41;;;;;;;0.60;0.60;;;17.40;99.90;;;;;;5041173;28;20500;-70
2023/09/12 03:10:07;;;;;;;0.47;0.47;;;17.30;99.90;;;;;;5038553;28;20040;-70
2023/09/12 03:12:35;;;;;;;0.13;0.10;;;17.30;99.90;;;;;;5033840;28;20068;-70
2023/09/12 03:15:00;;;;;;;3.45;0.90;;;17.30;99.90;;;;;;5042352;28;20074;-70
2023/09/12 03:17:28;;;;;;;0.55;0.55;;;17.30;99.90;;;;;;5047135;28;20064;-70
2023/09/12 03:19:53;;;;;;;0.20;0.20;;;17.30;99.90;;;;;;5039521;28;20051;-70
2023/09/12 03:22:19;;;;;;;1.95;1.35;;;17.30;99.90;;;;;;5041112;28;20044;-70
2023/09/12 03:24:45;;;;;;;0.80;0.80;;;17.20;99.90;;;;;;5038077;28;20047;-70
2023/09/12 03:27:10;;;;;;;1.33;0.70;;;17.20;99.90;;;;;;5041297;28;20143;-70
2023/09/12 03:29:36;;;;;;;3.58;0.57;;;17.10;99.90;;;;;;5044201;28;20039;-70
2023/09/12 03:32:01;;;;;;;1.33;0.77;;;17.20;99.90;;;;;;5039757;28;20387;-70
2023/09/12 03:34:27;;;;;;;0.68;0.65;;;17.10;99.90;;;;;;5039488;28;20037;-70
2023/09/12 03:36:52;;;;;;;1.00;0.65;;;17.20;99.90;;;;;;5040368;28;20521;-70
2023/09/12 03:39:18;;;;;;;0.85;0.82;;;17.20;99.90;;;;;;5041988;28;20510;-70
2023/09/12 03:41:43;;;;;;;0.63;0.63;;;17.20;99.90;;;;;;5044809;28;20458;-70
2023/09/12 03:44:09;;;;;;;0.30;0.30;;;17.30;99.90;;;;;;5040836;28;20044;-70
2023/09/12 03:46:34;;;;;;;1.50;0.52;;;17.30;99.90;;;;;;5043944;28;20037;-70
2023/09/12 03:49:00;;;;;;;1.05;0.95;;;17.40;99.90;;;;;;5039456;28;20036;-70
2023/09/12 03:51:26;;;;;;;2.70;0.95;;;17.30;99.90;;;;;;5043066;28;20395;-70
2023/09/12 03:53:51;;;;;;;1.10;0.55;;;17.40;99.90;;;;;;5047219;28;20028;-70
2023/09/12 03:56:19;;;;;;;1.00;0.75;;;17.40;99.90;;;;;;5046742;28;20063;-70
2023/09/12 03:58:45;;;;;;;0.45;0.40;;;17.50;99.90;;;;;;5041013;28;20063;-70
2023/09/12 04:01:11;;;;;;;3.40;1.23;;;17.50;99.90;;;;;;5046456;28;20046;-70
2023/09/12 04:03:36;;;;;;;0.80;0.77;;;17.50;99.90;;;;;;5038088;28;20064;-70
2023/09/12 04:06:02;;;;;;;1.88;1.52;;;17.50;99.90;;;;;;5045498;28;20037;-70
2023/09/12 04:08:27;;;;;;;2.22;1.58;;;17.50;99.90;;;;;;5042192;28;20387;-70
2023/09/12 04:10:53;;;;;;;1.85;1.45;;;17.60;99.90;;;;;;5074787;28;20388;-70
2023/09/12 04:13:19;;;;;;;1.25;1.15;;;17.60;99.90;;;;;;5041439;28;20466;-70
2023/09/12 04:15:44;;;;;;;2.92;1.30;;;17.50;99.90;;;;;;5075360;28;20064;-70
2023/09/12 04:18:10;;;;;;;7.03;2.53;;;17.50;99.90;;;;;;5046715;28;20040;-70
2023/09/12 04:20:35;;;;;;;2.20;1.95;;;17.50;99.90;;;;;;5057104;28;20037;-70
2023/09/12 04:23:02;;;;;;;1.95;0.90;;;17.50;99.90;;;;;;5046188;28;20032;-70
2023/09/12 04:25:29;;;;;;;4.75;2.45;;;17.50;99.90;;;;;;5045009;28;20390;-70
2023/09/12 04:27:54;;;;;;;1.80;1.70;;;17.50;99.90;;;;;;5057596;28;20450;-70
2023/09/12 04:30:20;;;;;;;1.55;1.25;;;17.50;99.90;;;;;;5063530;28;20051;-70
2023/09/12 04:32:45;;;;;;;2.63;1.45;;;17.50;99.90;;;;;;5042847;28;20036;-70
2023/09/12 04:35:11;;;;;;;4.43;1.60;;;17.50;99.90;;;;;;5042415;28;20699;-71
2023/09/12 04:37:37;;;;;;;3.47;1.63;;;17.50;99.90;;;;;;5045113;28;20557;-70
2023/09/12 04:40:05;;;;;;;0.77;0.65;;;17.50;99.90;;;;;;5076499;28;20441;-70
2023/09/12 04:42:30;;;;;;;2.08;1.27;;;17.50;99.90;;;;;;5040576;28;20098;-71
2023/09/12 04:44:56;;;;;;;5.85;1.35;;;17.50;99.90;;;;;;5044661;28;20037;-71
2023/09/12 04:47:22;;;;;;;4.35;1.25;;;17.40;99.90;;;;;;5042835;28;20537;-71
2023/09/12 04:49:47;;;;;;;1.75;1.17;;;17.40;99.90;;;;;;5041106;28;20451;-70
2023/09/12 04:52:13;;;;;;;1.58;1.40;;;17.40;99.90;;;;;;5044226;28;20037;-71
2023/09/12 04:54:38;;;;;;;3.05;2.03;;;17.40;99.90;;;;;;5038863;28;20040;-71
2023/09/12 04:57:04;;;;;;;3.63;1.48;;;17.40;99.90;;;;;;5040795;28;20453;-71
2023/09/12 04:59:30;;;;;;;2.65;2.45;;;17.30;99.90;;;;;;5072251;28;20047;-71
2023/09/12 05:01:55;;;;;;;2.25;1.95;;;17.30;99.90;;;;;;5042043;28;20063;-71
2023/09/12 05:04:21;;;;;;;4.55;2.00;;;17.30;99.90;;;;;;5044287;28;20475;-71
2023/09/12 05:06:47;;;;;;;3.67;1.85;;;17.20;99.90;;;;;;5041794;28;20049;-71
2023/09/12 05:09:13;;;;;;;5.63;2.30;;;17.30;99.90;;;;;;5039390;28;20496;-71
2023/09/12 05:11:38;;;;;;;2.05;0.98;;;17.20;99.90;;;;;;5056586;28;20116;-71
2023/09/12 05:14:04;;;;;;;2.83;1.00;;;17.30;99.90;;;;;;5036911;28;20054;-71
2023/09/12 05:16:30;;;;;;;2.47;1.35;;;17.30;99.90;;;;;;5044782;28;20131;-71
2023/09/12 05:18:55;;;;;;;6.43;2.13;;;17.30;99.90;;;;;;5071638;28;20127;-71
2023/09/12 05:21:21;;;;;;;3.17;1.90;;;17.20;99.90;;;;;;5041109;28;20055;-71
2023/09/12 05:23:47;;;;;;;1.67;1.25;;;17.20;99.90;;;;;;5074979;28;20037;-71
2023/09/12 05:26:12;;;;;;;3.83;1.65;;;17.30;99.90;;;;;;5044196;28;20402;-71
2023/09/12 05:28:38;;;;;;;1.73;1.60;;;17.30;99.90;;;;;;5040528;28;20048;-71
2023/09/12 05:31:03;;;;;;;3.40;1.55;;;17.30;99.90;;;;;;5037910;28;20047;-71
2023/09/12 05:33:29;;;;;;;5.03;2.28;;;17.30;99.90;;;;;;5037730;28;20509;-71
2023/09/12 05:35:54;;;;;;;4.00;2.55;;;17.40;99.90;;;;;;5044721;28;20501;-71
2023/09/12 05:38:20;;;;;;;2.20;1.88;;;17.40;99.90;;;;;;5044683;28;20032;-71
2023/09/12 05:40:46;;;;;;;1.83;0.77;;;17.40;99.90;;;;;;5045071;28;20049;-71
2023/09/12 05:43:11;;;;;;;1.52;0.98;;;17.40;99.90;;;;;;5039489;28;20054;-71
2023/09/12 05:45:37;;;;;;;4.03;1.33;;;17.40;99.90;;;;;;5042473;28;20037;-71
2023/09/12 05:48:04;;;;;;;0.85;0.85;;;17.50;99.90;;;;;;5038597;28;20158;-71
2023/09/12 05:50:30;;;;;;;1.83;1.58;;;17.50;99.90;;;;;;5065685;28;20051;-71
2023/09/12 05:52:55;;;;;;;2.40;1.35;;;17.50;99.90;;;;;;5043925;28;20040;-70
2023/09/12 05:55:21;;;;;;;4.82;1.17;;;17.60;99.90;;;;;;5038461;28;20123;-70
2023/09/12 05:57:52;;;;;;;1.13;1.08;;;17.50;99.90;;;;;;5057583;28;20518;-71
2023/09/12 06:00:17;;;;;;;2.75;2.10;;;17.60;99.90;;;;;;5040699;28;20048;-70
2023/09/12 06:02:43;;;;;;;1.80;1.13;;;17.60;99.90;;;;;;5046376;28;20082;-70
2023/09/12 06:05:09;;;;;;;1.95;0.70;;;17.60;99.90;;;;;;5071734;28;20037;-70
2023/09/12 06:07:35;;;;;;;2.00;0.85;;;17.60;99.90;;;;;;5040182;28;20491;-70
2023/09/12 06:10:01;;;;;;;2.67;1.55;;;17.60;99.90;;;;;;5045497;28;20188;-70
2023/09/12 06:12:27;;;;;;;2.20;1.02;;;17.70;99.90;;;;;;5038507;28;20048;-70
2023/09/12 06:14:55;;;;;;;1.83;1.25;;;17.70;99.90;;;;;;5040404;28;20269;-70
2023/09/12 06:17:21;;;;;;;0.88;0.77;;;17.70;99.90;;;;;;5069426;28;20521;-70
2023/09/12 06:19:51;;;;;;;0.70;0.70;;;17.70;99.90;;;;;;5042811;28;20256;-70
2023/09/12 06:22:17;;;;;;;7.38;1.35;;;17.80;99.90;;;;;;5043714;28;20032;-70
2023/09/12 06:24:45;;;;;;;1.75;1.02;;;17.90;99.90;;;;;;5071020;28;20441;-70
2023/09/12 06:27:17;;;;;;;2.35;1.48;;;17.90;99.90;;;;;;5038517;28;20033;-70
2023/09/12 06:29:43;;;;;;;1.38;1.33;;;17.90;99.90;;;;;;5071823;28;20044;-70
2023/09/12 06:32:08;;;;;;;3.10;2.58;;;18.00;99.90;;;;;;5039612;28;20036;-70
2023/09/12 06:34:34;;;;;;;2.53;1.83;;;18.00;99.90;;;;;;5043668;28;20036;-70
2023/09/12 06:36:59;;;;;;;1.77;1.42;;;18.10;99.90;;;;;;5055968;28;20457;-70
2023/09/12 06:39:25;;;;;;;1.83;1.70;;;18.20;99.90;;;;;;5036140;28;20422;-70
2023/09/12 06:41:50;;;;;;;1.67;0.85;;;18.30;99.90;;;;;;5032819;28;20506;-70
2023/09/12 06:44:16;;;;;;;2.80;1.48;;;18.30;99.90;;;;;;5050396;28;20039;-70
2023/09/12 06:46:41;;;;;;;1.15;0.57;;;18.40;99.90;;;;;;5052944;28;20037;-70
2023/09/12 06:49:07;;;;;;;2.75;1.38;;;18.40;99.90;;;;;;5033049;28;20067;-70
2023/09/12 06:51:34;;;;;;;4.53;2.42;;;18.50;99.90;;;;;;5040824;28;20220;-70
2023/09/12 06:53:59;;;;;;;3.20;2.10;;;18.50;99.90;;;;;;5037440;28;20063;-70
2023/09/12 06:56:25;;;;;;;3.65;1.92;;;18.60;99.90;;;;;;5041591;28;20101;-70
2023/09/12 06:58:53;;;;;;;0.82;0.82;;;18.50;99.90;;;;;;5056538;28;20499;-70
2023/09/12 07:01:18;;;;;;;6.18;3.22;;;18.50;99.90;;;;;;5050728;28;20032;-70
2023/09/12 07:03:44;;;;;;;5.50;2.88;;;18.50;99.90;;;;;;5052207;28;20032;-70
2023/09/12 07:06:09;;;;;;;3.35;1.58;;;18.60;99.90;;;;;;5043850;28;20064;-70
2023/09/12 07:08:36;;;;;;;8.05;5.03;;;18.60;99.90;;;;;;5038106;28;20048;-70
2023/09/12 07:11:05;;;;;;;12.93;2.58;;;18.60;99.90;;;;;;5046302;28;20083;-69
2023/09/12 07:13:32;;;;;;;5.25;2.28;;;18.70;99.90;;;;;;5045945;28;20051;-69
2023/09/12 07:15:58;;;;;;;3.75;2.55;;;18.70;99.90;;;;;;5038758;28;20128;-68
2023/09/12 07:18:23;;;;;;;5.55;2.95;;;18.70;99.90;;;;;;5034091;28;20044;-69
2023/09/12 07:21:00;;;;;;;3.25;2.95;;;18.80;99.90;;;;;;5077395;28;20429;-69
2023/09/12 07:23:25;;;;;;;6.47;2.03;;;18.80;99.90;;;;;;5051372;28;20471;-68
2023/09/12 07:25:52;;;;;;;2.75;2.33;;;18.80;99.90;;;;;;5050427;28;20120;-69
2023/09/12 07:28:18;;;;;;;6.07;2.45;;;18.90;99.90;;;;;;5036992;28;20040;-69
2023/09/12 07:30:46;;;;;;;3.35;2.63;;;19.10;99.90;;;;;;5068092;28;20424;-69
2023/09/12 07:33:12;;;;;;;3.08;1.52;;;19.20;99.90;;;;;;5048366;28;20090;-69
2023/09/12 07:35:37;;;;;;;3.08;1.67;;;19.30;99.90;;;;;;5045437;28;20037;-70
2023/09/12 07:38:03;;;;;;;3.28;1.95;;;19.30;99.90;;;;;;5051019;28;20052;-70
2023/09/12 07:40:28;;;;;;;7.93;1.88;;;19.50;99.90;;;;;;5046155;28;20126;-70
2023/09/12 07:42:55;;;;;;;3.17;2.80;;;19.50;99.90;;;;;;5046245;28;20041;-70
2023/09/12 07:45:20;;;;;;;2.92;2.72;;;19.60;99.90;;;;;;5077757;28;20033;-71
2023/09/12 07:47:46;;;;;;;6.63;3.05;;;19.70;99.90;;;;;;5045130;28;20036;-71
2023/09/12 07:50:12;;;;;;;5.13;3.45;;;19.60;99.90;;;;;;5051794;28;20040;-71
2023/09/12 07:52:37;;;;;;;8.13;2.65;;;19.60;99.90;;;;;;5043662;28;20041;-71
2023/09/12 07:55:03;;;;;;;1.85;1.75;;;19.60;99.90;;;;;;5054797;28;20501;-71
2023/09/12 07:57:29;;;;;;;4.22;1.92;;;19.60;99.90;;;;;;5042408;28;20036;-71
2023/09/12 07:59:56;;;;;;;2.00;1.75;;;19.50;99.90;;;;;;5083346;28;20399;-71
2023/09/12 08:02:21;;;;;;;2.53;1.75;;;19.60;99.90;;;;;;5036631;28;20079;-70
2023/09/12 08:04:49;;;;;;;6.35;2.72;;;19.50;99.90;;;;;;5062333;28;20024;-71
2023/09/12 08:07:15;;;;;;;9.38;5.47;;;19.50;99.90;;;;;;5039758;28;20062;-71
2023/09/12 08:09:53;;;;;;;3.47;2.05;;;19.60;99.90;;;;;;5049609;28;20032;-71
2023/09/12 08:12:20;;;;;;;8.15;4.30;;;19.60;99.90;;;;;;5044144;28;20509;-71
2023/09/12 08:14:46;;;;;;;4.53;2.45;;;19.70;99.90;;;;;;5050178;28;20040;-71
2023/09/12 08:17:12;;;;;;;1.63;1.23;;;19.70;99.90;;;;;;5043418;28;20078;-71
2023/09/12 08:19:38;;;;;;;3.58;1.83;;;19.90;99.90;;;;;;5052814;28;20047;-72
2023/09/12 08:22:05;;;;;;;2.72;1.92;;;19.90;99.90;;;;;;5034835;28;20418;-72
2023/09/12 08:24:30;;;;;;;3.15;1.42;;;20.00;99.90;;;;;;5041844;28;20048;-72
2023/09/12 08:26:56;;;;;;;1.88;1.73;;;20.00;99.90;;;;;;5035215;28;20194;-72
2023/09/12 08:29:21;;;;;;;3.60;2.80;;;20.10;99.90;;;;;;5034832;28;20041;-72
2023/09/12 08:31:47;;;;;;;4.68;2.03;;;20.20;99.90;;;;;;5034516;28;20049;-72
2023/09/12 08:34:13;;;;;;;1.27;1.15;;;20.20;99.90;;;;;;5046973;28;20064;-72
2023/09/12 08:36:39;;;;;;;3.55;1.98;;;20.20;99.90;;;;;;5045172;28;20045;-71
2023/09/12 08:39:08;;;;;;;3.38;2.72;;;20.20;99.90;;;;;;5034348;28;20048;-72
2023/09/12 08:41:33;;;;;;;2.70;1.80;;;20.20;99.90;;;;;;5033944;28;20044;-71
2023/09/12 08:44:01;;;;;;;3.53;1.95;;;20.20;99.90;;;;;;5037156;28;20121;-72
2023/09/12 08:46:27;;;;;;;4.75;3.28;;;20.30;99.90;;;;;;5055924;28;20040;-71
2023/09/12 08:48:55;;;;;;;3.58;1.15;;;20.30;99.90;;;;;;5049780;28;20395;-70
2023/09/12 08:51:23;;;;;;;2.05;1.65;;;20.40;99.90;;;;;;5068564;28;20411;-71
2023/09/12 08:53:49;;;;;;;1.65;1.40;;;20.40;99.90;;;;;;5049054;28;20059;-71
2023/09/12 08:56:16;;;;;;;2.45;2.22;;;20.40;99.90;;;;;;5052187;28;20081;-71
2023/09/12 08:58:43;;;;;;;3.15;2.33;;;20.40;99.90;;;;;;5054474;28;20547;-71
2023/09/12 09:01:12;;;;;;;4.78;2.90;;;20.40;99.90;;;;;;5048369;28;20162;-71
2023/09/12 09:03:41;;;;;;;3.97;2.10;;;20.40;99.90;;;;;;5043435;28;20142;-70
2023/09/12 09:06:08;;;;;;;2.00;1.90;;;20.40;99.90;;;;;;5055995;28;20041;-70
2023/09/12 09:08:34;;;;;;;3.70;2.50;;;20.40;99.90;;;;;;5036276;28;20052;-70
2023/09/12 09:11:03;;;;;;;3.50;2.30;;;20.40;99.90;;;;;;5045186;28;20072;-70
2023/09/12 09:13:29;;;;;;;2.45;1.80;;;20.40;99.90;;;;;;5044781;28;20045;-70
2023/09/12 09:16:15;;;;;;;3.00;1.92;;;20.40;99.90;;;;;;5044883;28;20399;-70
2023/09/12 09:19:01;;;;;;;1.88;1.55;;;20.40;99.90;;;;;;5083866;28;20045;-71
2023/09/12 09:21:31;;;;;;;2.47;1.58;;;20.60;99.90;;;;;;5081516;28;20075;-71
2023/09/12 09:24:00;;;;;;;4.10;1.92;;;20.60;99.90;;;;;;5036994;28;20037;-71
2023/09/12 09:26:39;;;;;;;2.92;1.98;;;20.70;99.90;;;;;;5050543;28;20112;-71
2023/09/12 09:29:08;;;;;;;2.35;1.80;;;20.80;99.90;;;;;;5035024;28;20074;-71
2023/09/12 09:31:34;;;;;;;2.88;2.67;;;20.90;99.90;;;;;;5044221;28;20053;-71
2023/09/12 09:34:01;;;;;;;3.72;2.78;;;21.00;99.90;;;;;;5050260;28;20048;-71
2023/09/12 09:36:27;;;;;;;1.70;1.60;;;21.10;99.90;;;;;;5052729;28;20272;-72
2023/09/12 09:38:53;;;;;;;2.33;2.05;;;21.10;99.90;;;;;;5051279;28;20537;-72
2023/09/12 09:41:22;;;;;;;6.55;2.58;;;21.20;99.90;;;;;;5043874;28;20123;-73
2023/09/12 09:43:52;;;;;;;5.05;2.35;;;21.30;99.90;;;;;;5046312;28;20037;-73
2023/09/12 09:46:18;;;;;;;2.35;2.22;;;21.40;99.90;;;;;;5042247;28;20045;-73
2023/09/12 09:48:51;;;;;;;4.43;2.25;;;21.50;99.90;;;;;;5073056;28;20082;-73
2023/09/12 09:51:17;;;;;;;1.88;1.40;;;21.50;99.90;;;;;;5049768;28;20045;-74
2023/09/12 09:53:43;;;;;;;5.63;2.20;;;21.60;99.90;;;;;;5055922;28;20067;-74
2023/09/12 09:56:15;;;;;;;2.42;1.38;;;21.70;99.90;;;;;;5036489;28;20053;-75
2023/09/12 09:58:52;;;;;;;7.95;2.85;;;21.90;99.90;;;;;;5044569;28;20402;-74
2023/09/12 10:01:19;;;;;;;3.00;2.10;;;22.00;99.90;;;;;;5057285;28;20743;-75
2023/09/12 10:03:50;;;;;;;3.50;2.67;;;22.20;99.90;;;;;;5034210;28;20558;-75
2023/09/12 10:06:17;;;;;;;4.00;3.17;;;22.30;99.90;;;;;;5067249;28;20407;-72
2023/09/12 10:08:46;;;;;;;3.72;1.90;;;22.40;99.90;;;;;;5052506;28;20068;-73
2023/09/12 10:11:15;;;;;;;0.95;0.90;;;22.40;99.90;;;;;;5048854;28;20040;-74
2023/09/12 10:13:50;;;;;;;2.22;1.85;;;22.30;99.90;;;;;;5053293;28;20434;-76
2023/09/12 10:16:16;;;;;;;2.13;1.63;;;22.20;99.90;;;;;;5047771;28;20059;-75
2023/09/12 10:19:03;;;;;;;2.63;1.75;;;22.30;99.90;;;;;;5051300;28;20039;-75
2023/09/12 10:21:31;;;;;;;2.70;2.00;;;22.40;99.90;;;;;;5051457;28;20036;-76
2023/09/12 10:23:58;;;;;;;3.78;1.65;;;22.40;99.90;;;;;;5048269;28;20094;-75
2023/09/12 10:26:25;;;;;;;2.63;2.38;;;22.50;99.90;;;;;;5048532;28;20392;-76
2023/09/12 10:28:51;;;;;;;5.35;3.85;;;22.50;99.90;;;;;;5034593;28;20475;-71
2023/09/12 10:31:17;;;;;;;1.65;1.55;;;22.50;99.90;;;;;;5059431;28;20098;-75
2023/09/12 10:33:44;;;;;;;2.72;1.33;;;22.50;99.90;;;;;;5050265;28;20048;-72
2023/09/12 10:36:11;;;;;;;3.90;2.70;;;22.40;99.90;;;;;;5049342;28;20040;-73
2023/09/12 10:38:46;;;;;;;2.92;2.38;;;22.40;99.90;;;;;;5083446;28;20032;-69
2023/09/12 10:41:16;;;;;;;3.00;2.75;;;22.40;99.90;;;;;;5074808;28;20059;-71
2023/09/12 10:43:49;;;;;;;2.85;2.40;;;22.50;99.90;;;;;;5045426;28;20480;-72
2023/09/12 10:46:15;;;;;;;1.48;1.38;;;22.50;99.90;;;;;;5039067;28;20051;-71
2023/09/12 10:48:41;;;;;;;4.15;1.13;;;22.60;99.90;;;;;;5038624;28;20033;-73
2023/09/12 10:51:08;;;;;;;2.75;2.55;;;22.50;99.90;;;;;;5053143;28;20120;-71
2023/09/12 10:53:33;;;;;;;2.03;1.92;;;22.50;99.90;;;;;;5045934;28;20047;-74
2023/09/12 10:56:17;;;;;;;1.65;1.48;;;22.50;99.90;;;;;;5052967;28;20045;-73
2023/09/12 10:59:03;;;;;;;4.47;2.58;;;22.50;99.90;;;;;;5045526;28;20045;-72
2023/09/12 11:01:30;;;;;;;1.05;0.77;;;22.50;99.90;;;;;;5027025;28;20047;-70
2023/09/12 11:03:55;;;;;;;1.20;1.20;;;22.70;99.90;;;;;;5033119;28;20037;-70
2023/09/12 11:06:23;;;;;;;2.40;1.83;;;22.70;99.90;;;;;;5051602;28;20450;-73
2023/09/12 11:09:13;;;;;;;2.97;2.72;;;22.90;99.90;;;;;;5049022;28;20500;-71
2023/09/12 11:11:43;;;;;;;1.42;1.33;;;22.90;99.90;;;;;;5038454;28;20079;-73
2023/09/12 11:14:09;;;;;;;1.05;1.05;;;22.90;99.90;;;;;;5067443;28;20053;-69
2023/09/12 11:16:35;;;;;;;1.98;1.02;;;23.00;99.90;;;;;;5041999;28;20076;-70
2023/09/12 11:19:23;;;;;;;2.50;1.80;;;23.00;99.90;;;;;;5026787;28;20066;-70
2023/09/12 11:21:51;;;;;;;1.88;1.77;;;23.00;99.90;;;;;;5039747;28;20387;-70
2023/09/12 11:24:18;;;;;;;2.30;1.17;;;23.10;99.90;;;;;;5045578;28;20036;-71
2023/09/12 11:26:57;;;;;;;2.22;1.60;;;23.20;99.90;;;;;;5041538;28;20029;-71
2023/09/12 11:29:45;;;;;;;1.58;1.48;;;23.20;99.90;;;;;;5037653;28;20497;-69
2023/09/12 11:32:25;;;;;;;1.75;1.42;;;23.30;99.90;;;;;;5061601;28;20479;-70
2023/09/12 11:34:52;;;;;;;3.15;2.15;;;23.40;99.90;;;;;;5050694;28;20051;-70
2023/09/12 11:37:28;;;;;;;1.13;1.00;;;23.50;99.90;;;;;;5036861;28;20419;-70
2023/09/12 11:39:54;;;;;;;2.10;1.85;;;23.50;99.90;;;;;;5041525;28;20340;-73
2023/09/12 11:42:22;;;;;;;2.83;1.65;;;23.60;99.90;;;;;;5055006;28;20041;-71
2023/09/12 11:44:50;;;;;;;1.80;1.38;;;23.70;99.90;;;;;;5029698;28;20044;-72
2023/09/12 11:47:15;;;;;;;2.08;1.33;;;23.80;99.90;;;;;;5070600;28;20048;-69
2023/09/12 11:49:42;;;;;;;3.03;1.23;;;23.80;99.90;;;;;;5045944;28;20032;-72
2023/09/12 11:52:12;;;;;;;7.25;2.15;;;23.90;99.90;;;;;;5051291;28;20123;-73
2023/09/12 11:54:42;;;;;;;1.90;1.80;;;24.00;99.90;;;;;;5049077;28;20483;-71
2023/09/12 11:57:10;;;;;;;6.80;1.90;;;24.00;99.90;;;;;;5044682;28;20048;-73
2023/09/12 11:59:48;;;;;;;0.85;0.85;;;24.10;99.90;;;;;;5051707;28;20040;-70
2023/09/12 12:02:14;;;;;;;2.22;1.52;;;24.10;99.90;;;;;;5038509;28;20055;-70
2023/09/12 12:04:40;;;;;;;1.65;0.98;;;24.10;99.90;;;;;;5076531;28;20037;-74
2023/09/12 12:07:07;;;;;;;0.70;0.70;;;24.20;99.90;;;;;;5032647;28;20044;-75
2023/09/12 12:09:34;;;;;;;2.40;1.95;;;24.10;99.90;;;;;;5031954;28;20111;-74
2023/09/12 12:12:04;;;;;;;1.77;1.67;;;24.10;99.90;;;;;;5046004;28;20097;-74
2023/09/12 12:14:34;;;;;;;4.45;1.40;;;24.10;99.90;;;;;;5080947;28;20051;-71
2023/09/12 12:17:06;;;;;;;0.55;0.55;;;24.20;99.90;;;;;;5049348;28;20097;-76
2023/09/12 12:19:31;;;;;;;;;;;24.40;99.90;;;;;;5054648;28;20115;-75
2023/09/12 12:21:57;;;;;;;1.00;0.70;;;24.40;99.90;;;;;;5050129;28;20061;-73
2023/09/12 12:24:22;;;;;;;2.53;1.05;;;24.50;99.90;;;;;;5051952;28;20033;-71
2023/09/12 12:26:48;;;;;;;1.40;0.95;;;24.40;99.90;;;;;;5050967;28;20502;-74
2023/09/12 12:29:13;;;;;;;1.92;0.93;;;24.10;99.90;;;;;;5033535;28;20605;-72
2023/09/12 12:31:39;;;;;;;1.30;0.47;;;24.00;99.90;;;;;;5039340;28;20058;-72
2023/09/12 12:34:05;;;;;;;1.00;1.00;;;23.80;99.90;;;;;;5048916;28;20119;-72
2023/09/12 12:36:31;;;;;;;2.35;1.33;;;23.80;99.90;;;;;;5056935;28;20037;-74
2023/09/12 12:38:56;;;;;;;3.60;0.63;;;23.70;99.90;;;;;;5052020;28;20040;-74
2023/09/12 12:41:28;;;;;;;0.75;0.60;;;23.80;99.90;;;;;;5046311;28;20072;-71
2023/09/12 12:43:58;;;;;;;1.52;1.45;;;23.70;99.90;;;;;;5048519;28;20047;-72
2023/09/12 12:46:24;;;;;;;1.15;1.05;;;23.70;99.90;;;;;;5041995;28;20051;-73
2023/09/12 12:48:50;;;;;;;3.13;1.67;;;23.80;99.90;;;;;;5034605;28;20037;-72